Aérodrome :
LOGIN :

S'inscrire | Disclaimer

   EN    FR    IT 

 










Légende :    VFR   VFR Marginal   IFR   IFR Intensif   IFR Très Intensif
Visi : 
Plafond : 
>= 8 km
>= 3000ft
5 à 8 km
1000 à 3000 ft
1500m à 5 km
500 à 1000 ft
800 à 1500m
200 à 500 ft
< 800m
< 200 ft
Symboles :   Orages  Brouillard  Fortes neiges  Fortes précipitations  Vent > 20 kt
SIGMETs :   Divers  Orages  Givrage  Turbulence  Onde Orograph.  Cendres Volcan.







- Altitude de l'aérodrome : 3 ft
- Code IATA : DHR


EHKD - Den Helder De Kooy

DERNIER METAR :
  • 240730Z AUTO 32008KT 280V350 9999 NCD 16/09 Q1014 BLU 32010KT CAVOK

METARs EXPIRÉS :
  • 240725Z AUTO 32008KT 280V010 9999 NCD 16/09 Q1014 BLU 29006KT CAVOK
  • 240655Z AUTO 31007KT 260V350 9999 NCD 15/10 Q1014 BLU 29006KT CAVOK
  • 240626Z AUTO 29008KT 250V320 9999 SCT310 14/11 Q1014 BLU 29006KT CAVOK
  • 240625Z AUTO 29008KT 240V320 9999 NCD 14/11 Q1014 BLU 27006KT CAVOK
  • 240555Z AUTO 27008KT 9000 BR SCT066 BKN170 13/12 Q1014 BLU 27006KT CAVOK
  • 240536Z AUTO 26007KT 8000 BR BKN067 13/12 Q1014 BLU 27006KT CAVOK
  • 240525Z AUTO 26007KT 8000 BR FEW070 13/12 Q1014 BLU 27006KT CAVOK
  • 240455Z AUTO 26005KT 220V280 6000 BR SCT069 12/11 Q1013 WHT 21006KT 6000 NSC
  • 240449Z AUTO 26005KT 6000 BR FEW069 12/11 Q1013 WHT 21006KT 6000 NSC

TAF TAF EHKD
Valide du 24 à 05h jusqu'au 24 à 17h UTC


240435Z 2405/2417 24005KT 6000 NSC
BECMG 2406/2408 31009KT
TEMPO 2409/2417 32010G20KT
Pas de NOTAMs connus pour ce terrain.



MET'MAP, la Météo Aéronautique d'un coup d'oeil ! - Copyright ORBIFLY Décembre 2007 - Disclaimer

ORBIFLY MET'MAP TEAM :

Programmation & Développement : Alexandra Zaïnal
Conception & Développement : Baudouin d'Aumeries
Co-Programmation & Développement : Marc-Olivier Méhu
Soutien technique & logistique : Manuel Goepfert

Contact : metmap@orbifly.com




SOURCES & CREDITS :

   NOAA